createdAt,value
2018-05-31T00:01:23.376Z,97962.92
2018-05-31T00:03:51.641Z,97960.84
2018-05-31T00:06:22.372Z,97954.45
2018-05-31T00:08:51.403Z,97954.03
2018-05-31T00:11:19.644Z,97950.64
2018-05-31T00:13:47.901Z,97951.78
2018-05-31T00:16:16.921Z,97952.44
2018-05-31T00:18:45.180Z,97945.68
2018-05-31T00:21:14.203Z,97949.48
2018-05-31T00:23:42.472Z,97941.13
2018-05-31T00:26:10.751Z,97945.38
2018-05-31T00:28:39.005Z,97935.74
2018-05-31T00:31:08.031Z,97937.66
2018-05-31T00:33:36.289Z,97937.22
2018-05-31T00:36:04.557Z,97932.95
2018-05-31T00:38:33.583Z,97942.47
2018-05-31T00:41:01.828Z,97937.27
2018-05-31T00:43:30.087Z,97936.34
2018-05-31T00:45:59.098Z,97934.72
2018-05-31T00:48:27.382Z,97933.89
2018-05-31T00:50:55.645Z,97933.27
2018-05-31T00:53:23.896Z,97939.69
2018-05-31T00:56:09.775Z,97934.80
2018-05-31T00:58:39.524Z,97932.61
2018-05-31T01:01:07.785Z,97933.48
2018-05-31T01:03:36.803Z,97932.77
2018-05-31T01:06:05.066Z,97928.80
2018-05-31T01:08:33.313Z,97932.41
2018-05-31T01:11:01.569Z,97927.02
2018-05-31T01:13:29.823Z,97924.00
2018-05-31T01:15:58.084Z,97921.80
2018-05-31T01:18:26.324Z,97920.86
2018-05-31T01:20:55.344Z,97917.38
2018-05-31T01:23:23.594Z,97916.30
2018-05-31T01:25:52.625Z,97909.59
2018-05-31T01:28:20.873Z,97912.24
2018-05-31T01:30:49.897Z,97909.09
2018-05-31T01:33:18.145Z,97912.78
2018-05-31T01:35:47.184Z,97914.97
2018-05-31T01:38:31.357Z,97920.19
2018-05-31T01:41:00.386Z,97924.91
2018-05-31T01:43:28.637Z,97924.09
2018-05-31T01:45:56.888Z,97910.17
2018-05-31T01:48:25.144Z,97902.59
2018-05-31T01:50:54.440Z,97916.67
2018-05-31T01:53:22.695Z,97926.82
2018-05-31T01:55:50.950Z,97925.75
2018-05-31T01:58:19.961Z,97910.25
2018-05-31T02:00:48.227Z,97917.80
2018-05-31T02:03:17.242Z,97915.98
2018-05-31T02:05:45.495Z,97926.70
2018-05-31T02:08:14.520Z,97913.81
2018-05-31T02:10:42.780Z,97915.18
2018-05-31T02:13:11.036Z,97919.69
2018-05-31T02:15:40.053Z,97907.97
2018-05-31T02:18:08.318Z,97919.66
2018-05-31T02:20:36.572Z,97913.89
2018-05-31T02:23:05.588Z,97909.38
2018-05-31T02:25:33.854Z,97913.44
2018-05-31T02:28:02.881Z,97914.73
2018-05-31T02:30:31.125Z,97919.66
2018-05-31T02:32:59.383Z,97911.42
2018-05-31T02:35:28.404Z,97903.09
2018-05-31T02:37:56.665Z,97902.55
2018-05-31T02:40:25.677Z,97903.67
2018-05-31T02:42:53.938Z,97892.16
2018-05-31T02:45:22.198Z,97892.58
2018-05-31T02:47:51.233Z,97889.94
2018-05-31T02:50:19.494Z,97881.41
2018-05-31T02:52:47.737Z,97883.18
2018-05-31T02:55:16.791Z,97871.27
2018-05-31T02:57:45.034Z,97868.78
2018-05-31T03:00:13.293Z,97871.56
2018-05-31T03:02:42.308Z,97863.76
2018-05-31T03:05:10.565Z,97884.35
2018-05-31T03:07:39.577Z,97891.52
2018-05-31T03:10:07.830Z,97916.45
2018-05-31T03:12:36.845Z,97912.12
2018-05-31T03:15:05.101Z,97898.59
2018-05-31T03:17:34.122Z,97894.75
2018-05-31T03:20:02.394Z,97890.94
2018-05-31T03:22:30.644Z,97893.48
2018-05-31T03:24:59.666Z,97889.02
2018-05-31T03:27:27.921Z,97880.49
2018-05-31T03:29:56.176Z,97880.99
2018-05-31T03:32:25.198Z,97876.23
2018-05-31T03:34:53.465Z,97864.97
2018-05-31T03:37:21.720Z,97878.49
2018-05-31T03:39:50.755Z,97872.67
2018-05-31T03:42:19.006Z,97872.76
2018-05-31T03:44:48.022Z,97880.29
2018-05-31T03:47:16.287Z,97879.75
2018-05-31T03:49:44.537Z,97886.38
2018-05-31T03:52:13.569Z,97890.43
2018-05-31T03:54:41.821Z,97894.31
2018-05-31T03:57:10.841Z,97888.61
2018-05-31T03:59:39.089Z,97894.91
2018-05-31T04:02:08.113Z,97900.73
2018-05-31T04:04:36.364Z,97905.00
2018-05-31T04:07:04.624Z,97908.63
2018-05-31T04:09:33.646Z,97912.20
2018-05-31T04:12:01.905Z,97910.38
2018-05-31T04:14:30.166Z,97918.61
2018-05-31T04:17:00.843Z,97924.38
2018-05-31T04:19:29.095Z,97937.08
2018-05-31T04:21:57.350Z,97944.79
2018-05-31T04:24:26.374Z,97954.23
2018-05-31T04:26:54.629Z,97953.56
2018-05-31T04:29:23.695Z,97948.14
2018-05-31T04:31:51.957Z,97955.80
2018-05-31T04:34:20.214Z,97971.99
2018-05-31T04:36:48.478Z,97973.20
2018-05-31T04:39:16.725Z,97966.11
2018-05-31T04:41:45.751Z,97956.27
2018-05-31T04:44:13.996Z,97959.66
2018-05-31T04:46:42.272Z,97961.48
2018-05-31T04:49:11.290Z,97970.42
2018-05-31T04:51:39.542Z,97957.52
2018-05-31T04:54:07.803Z,97952.86
2018-05-31T04:56:36.824Z,97964.98
2018-05-31T04:59:05.080Z,97972.94
2018-05-31T05:01:34.101Z,97962.31
2018-05-31T05:04:02.616Z,97964.01
2018-05-31T05:06:30.864Z,97968.42
2018-05-31T05:08:59.132Z,97978.28
2018-05-31T05:11:27.383Z,97971.03
2018-05-31T05:13:56.949Z,97961.98
2018-05-31T05:16:25.204Z,97958.68
2018-05-31T05:18:53.458Z,97965.67
2018-05-31T05:21:21.718Z,97971.00
2018-05-31T05:23:49.972Z,97970.02
2018-05-31T05:26:18.228Z,97963.64
2018-05-31T05:28:46.491Z,97967.55
2018-05-31T05:31:14.739Z,97970.02
2018-05-31T05:33:43.004Z,97969.38
2018-05-31T05:36:11.250Z,97967.18
2018-05-31T05:38:39.508Z,97977.80
2018-05-31T05:41:07.757Z,97983.58
2018-05-31T05:43:36.067Z,97982.53
2018-05-31T05:46:04.278Z,97985.77
2018-05-31T05:48:32.526Z,97982.32
2018-05-31T05:51:00.834Z,97989.91
2018-05-31T05:53:29.086Z,97988.98
2018-05-31T05:55:58.105Z,97992.72
2018-05-31T05:58:26.355Z,97993.88
2018-05-31T06:00:55.374Z,97993.92
2018-05-31T06:03:23.623Z,97991.32
2018-05-31T06:05:52.646Z,97998.97
2018-05-31T06:08:20.944Z,97991.25
2018-05-31T06:10:49.922Z,97989.41
2018-05-31T06:13:18.179Z,98002.19
2018-05-31T06:15:46.445Z,98004.39
2018-05-31T06:18:15.461Z,98007.04
2018-05-31T06:20:43.781Z,98016.27
2018-05-31T06:23:12.028Z,98012.86
2018-05-31T06:25:40.282Z,98014.86
2018-05-31T06:28:08.536Z,98016.67
2018-05-31T06:30:37.558Z,98023.23
2018-05-31T06:33:05.806Z,98016.56
2018-05-31T06:35:34.874Z,98014.10
2018-05-31T06:38:03.123Z,98017.38
2018-05-31T06:40:31.378Z,98012.31
2018-05-31T06:42:59.679Z,98019.55
2018-05-31T06:45:28.657Z,98017.64
2018-05-31T06:47:56.914Z,98016.20
2018-05-31T06:50:25.187Z,98018.55
2018-05-31T06:52:53.437Z,98009.70
2018-05-31T06:55:22.905Z,98011.23
2018-05-31T06:57:51.153Z,98015.88
2018-05-31T07:00:19.413Z,98011.68
2018-05-31T07:02:48.429Z,98020.09
2018-05-31T07:05:16.681Z,98020.40
2018-05-31T07:07:44.937Z,98014.66
2018-05-31T07:10:14.600Z,98017.43
2018-05-31T07:12:42.849Z,98012.58
2018-05-31T07:15:11.094Z,98017.17
2018-05-31T07:17:40.122Z,98010.15
2018-05-31T07:20:08.365Z,98015.93
2018-05-31T07:22:37.395Z,98017.09
2018-05-31T07:25:05.643Z,98015.69
2018-05-31T07:27:34.663Z,98015.17
2018-05-31T07:30:02.917Z,98019.61
2018-05-31T07:32:31.933Z,98017.33
2018-05-31T07:35:00.179Z,98014.35
2018-05-31T07:37:29.202Z,98011.87
2018-05-31T07:39:57.441Z,98016.07
2018-05-31T07:42:26.467Z,98021.88
2018-05-31T07:44:54.716Z,98019.08
2018-05-31T07:47:23.750Z,98020.13
2018-05-31T07:49:52.001Z,98020.17
2018-05-31T07:52:20.252Z,98013.60
2018-05-31T07:54:49.282Z,98019.80
2018-05-31T07:57:17.539Z,98017.18
2018-05-31T07:59:45.801Z,98026.63
2018-05-31T08:02:15.633Z,98027.08
2018-05-31T08:04:43.896Z,98020.84
2018-05-31T08:07:12.913Z,98018.66
2018-05-31T08:09:41.170Z,98019.50
2018-05-31T08:12:10.189Z,98026.20
2018-05-31T08:14:40.297Z,98024.22
2018-05-31T08:17:08.546Z,98029.86
2018-05-31T08:19:37.575Z,98032.09
2018-05-31T08:22:06.065Z,98040.39
2018-05-31T08:24:34.322Z,98034.45
2018-05-31T08:27:02.565Z,98030.80
2018-05-31T08:29:30.825Z,98027.59
2018-05-31T08:31:59.080Z,98036.60
2018-05-31T08:34:27.340Z,98044.73
2018-05-31T08:36:55.588Z,98046.11
2018-05-31T08:39:24.612Z,98046.95
2018-05-31T08:41:52.860Z,98041.50
2018-05-31T08:44:21.133Z,98048.43
2018-05-31T08:46:50.145Z,98046.25
2018-05-31T08:49:18.392Z,98048.00
2018-05-31T08:51:47.417Z,98038.33
2018-05-31T08:54:15.668Z,98034.59
2018-05-31T08:56:44.688Z,98033.14
2018-05-31T08:59:12.942Z,98032.83
2018-05-31T09:01:41.965Z,98032.60
2018-05-31T09:04:10.212Z,98032.00
2018-05-31T09:06:39.243Z,98033.11
2018-05-31T09:09:07.496Z,98030.02
2018-05-31T09:11:35.741Z,98030.14
2018-05-31T09:14:04.757Z,98023.61
2018-05-31T09:16:33.031Z,98026.69
2018-05-31T09:19:01.279Z,98016.28
2018-05-31T09:21:29.537Z,98014.04
2018-05-31T09:23:57.789Z,98021.64
2018-05-31T09:26:26.051Z,98012.48
2018-05-31T09:28:54.302Z,98011.70
2018-05-31T09:31:23.327Z,98011.92
2018-05-31T09:33:51.579Z,98011.63
2018-05-31T09:36:19.849Z,98005.36
2018-05-31T09:38:48.109Z,98011.10
2018-05-31T09:41:17.126Z,98009.02
2018-05-31T09:43:45.383Z,98008.69
2018-05-31T09:46:14.397Z,98009.48
2018-05-31T09:48:42.669Z,98011.52
2018-05-31T09:51:10.918Z,98010.50
2018-05-31T09:53:39.169Z,98007.79
2018-05-31T09:56:07.421Z,98015.50
2018-05-31T09:58:35.678Z,98013.45
2018-05-31T10:01:03.921Z,98013.80
2018-05-31T10:03:32.944Z,98010.55
2018-05-31T10:06:01.184Z,98012.38
2018-05-31T10:08:29.437Z,98015.42
2018-05-31T10:10:57.689Z,98008.33
2018-05-31T10:13:25.945Z,98009.02
2018-05-31T10:15:54.193Z,98012.50
2018-05-31T10:18:23.225Z,98008.46
2018-05-31T10:20:51.468Z,98005.20
2018-05-31T10:23:20.497Z,98010.20
2018-05-31T10:25:48.745Z,98006.03
2018-05-31T10:28:17.761Z,98014.59
2018-05-31T10:30:46.005Z,98006.38
2018-05-31T10:33:15.032Z,98001.77
2018-05-31T10:35:43.276Z,98001.80
2018-05-31T10:38:12.311Z,97999.99
2018-05-31T10:40:40.558Z,97991.59
2018-05-31T10:43:08.815Z,97989.66
2018-05-31T10:45:37.838Z,97993.02
2018-05-31T10:48:06.089Z,97991.81
2018-05-31T10:50:35.112Z,97986.37
2018-05-31T10:53:03.370Z,97985.30
2018-05-31T10:55:31.624Z,97981.45
2018-05-31T10:58:00.644Z,97988.84
2018-05-31T11:00:28.904Z,97986.11
2018-05-31T11:02:57.927Z,97988.13
2018-05-31T11:05:26.181Z,97981.15
2018-05-31T11:07:54.440Z,97966.75
2018-05-31T11:10:23.457Z,97953.18
2018-05-31T11:12:51.701Z,97960.23
2018-05-31T11:15:20.727Z,97963.84
2018-05-31T11:17:48.985Z,97957.94
2018-05-31T11:20:18.006Z,97960.44
2018-05-31T11:22:46.267Z,97953.95
2018-05-31T11:25:14.510Z,97957.92
2018-05-31T11:27:42.769Z,97951.59
2018-05-31T11:30:11.013Z,97945.40
2018-05-31T11:32:39.265Z,97945.41
2018-05-31T11:35:07.516Z,97941.55
2018-05-31T11:37:36.535Z,97936.51
2018-05-31T11:40:04.778Z,97941.84
2018-05-31T11:42:33.037Z,97932.53
2018-05-31T11:45:01.285Z,97935.06
2018-05-31T11:47:29.538Z,97921.17
2018-05-31T11:49:57.780Z,97927.96
2018-05-31T11:52:26.032Z,97924.75
2018-05-31T11:54:54.282Z,97920.59
2018-05-31T11:57:22.537Z,97925.70
2018-05-31T11:59:50.798Z,97923.79
2018-05-31T12:02:19.817Z,97911.43
2018-05-31T12:04:48.125Z,97908.34
2018-05-31T12:07:16.384Z,97905.31
2018-05-31T12:09:44.632Z,97908.02
2018-05-31T12:12:13.135Z,97905.37
2018-05-31T12:14:41.377Z,97901.11
2018-05-31T12:17:10.395Z,97900.62
2018-05-31T12:19:38.659Z,97908.72
2018-05-31T12:22:06.913Z,97906.53
2018-05-31T12:24:35.939Z,97905.17
2018-05-31T12:27:04.181Z,97899.89
2018-05-31T12:29:33.206Z,97893.36
2018-05-31T12:32:01.448Z,97889.53
2018-05-31T12:34:30.469Z,97881.87
2018-05-31T12:36:58.716Z,97884.27
2018-05-31T12:39:27.737Z,97884.53
2018-05-31T12:41:55.984Z,97867.73
2018-05-31T12:44:25.017Z,97878.59
2018-05-31T12:46:53.260Z,97875.66
2018-05-31T12:49:22.297Z,97877.11
2018-05-31T12:51:50.544Z,97878.51
2018-05-31T12:54:18.797Z,97878.47
2018-05-31T12:56:47.812Z,97877.57
2018-05-31T12:59:16.823Z,97875.25
2018-05-31T13:01:45.078Z,97876.03
2018-05-31T13:04:13.329Z,97874.09
2018-05-31T13:06:42.358Z,97872.41
2018-05-31T13:09:10.605Z,97867.14
2018-05-31T13:11:39.630Z,97862.16
2018-05-31T13:14:09.123Z,97871.43
2018-05-31T13:16:38.137Z,97869.58
2018-05-31T13:19:06.385Z,97878.37
2018-05-31T13:21:35.440Z,97875.30
2018-05-31T13:24:03.681Z,97880.53
2018-05-31T13:26:31.937Z,97875.27
2018-05-31T13:29:00.184Z,97873.95
2018-05-31T13:31:29.210Z,97872.19
2018-05-31T13:33:57.452Z,97874.04
2018-05-31T13:36:25.705Z,97875.83
2018-05-31T13:38:55.467Z,97883.88
2018-05-31T13:41:23.743Z,97882.30
2018-05-31T13:43:51.996Z,97878.97
2018-05-31T13:46:21.006Z,97876.32
2018-05-31T13:48:49.260Z,97871.04
2018-05-31T13:51:18.293Z,97871.22
2018-05-31T13:53:46.541Z,97872.55
2018-05-31T13:56:15.558Z,97869.34
2018-05-31T13:58:43.817Z,97866.91
2018-05-31T14:01:12.076Z,97867.33
2018-05-31T14:03:41.109Z,97863.66
2018-05-31T14:06:09.366Z,97856.06
2018-05-31T14:08:38.339Z,97862.77
2018-05-31T14:11:06.680Z,97855.88
2018-05-31T14:13:35.925Z,97855.68
2018-05-31T14:16:05.542Z,97858.00
2018-05-31T14:18:34.668Z,97847.41
2018-05-31T14:21:03.041Z,97843.45
2018-05-31T14:23:31.385Z,97845.17
2018-05-31T14:26:00.601Z,97835.59
2018-05-31T14:28:28.985Z,97838.31
2018-05-31T14:30:57.312Z,97827.22
2018-05-31T14:33:25.569Z,97825.31
2018-05-31T14:35:53.950Z,97814.88
2018-05-31T14:38:22.297Z,97813.37
2018-05-31T14:40:50.580Z,97819.98
2018-05-31T14:43:18.925Z,97827.51
2018-05-31T14:45:47.972Z,97834.64
2018-05-31T14:48:16.359Z,97835.05
2018-05-31T14:50:45.417Z,97835.48
2018-05-31T14:53:13.664Z,97834.80
2018-05-31T14:55:42.703Z,97835.72
2018-05-31T14:58:10.945Z,97842.30
2018-05-31T15:00:39.198Z,97836.83
2018-05-31T15:03:08.222Z,97841.69
2018-05-31T15:05:36.473Z,97842.66
2018-05-31T15:08:05.490Z,97839.56
2018-05-31T15:10:33.746Z,97849.59
2018-05-31T15:13:02.754Z,97843.14
2018-05-31T15:15:31.005Z,97835.31
2018-05-31T15:18:00.020Z,97832.51
2018-05-31T15:20:28.273Z,97832.19
2018-05-31T15:22:57.295Z,97831.31
2018-05-31T15:25:25.544Z,97834.28
2018-05-31T15:27:54.564Z,97839.23
2018-05-31T15:30:22.844Z,97841.49
2018-05-31T15:32:51.097Z,97838.13
2018-05-31T15:35:20.108Z,97836.32
2018-05-31T15:37:48.364Z,97838.95
2018-05-31T15:40:16.616Z,97848.63
2018-05-31T15:42:44.871Z,97850.25
2018-05-31T15:45:13.123Z,97852.02
2018-05-31T15:47:41.378Z,97849.80
2018-05-31T15:50:09.621Z,97840.61
2018-05-31T15:52:37.875Z,97833.29
2018-05-31T15:55:06.767Z,97833.96
2018-05-31T15:57:35.029Z,97839.38
2018-05-31T16:00:03.273Z,97848.33
2018-05-31T16:02:31.533Z,97856.59
2018-05-31T16:04:59.782Z,97845.03
2018-05-31T16:07:28.037Z,97861.69
2018-05-31T16:09:56.285Z,97865.71
2018-05-31T16:12:24.541Z,97860.30
2018-05-31T16:14:52.789Z,97852.56
2018-05-31T16:17:21.061Z,97851.99
2018-05-31T16:19:49.310Z,97846.61
2018-05-31T16:22:17.558Z,97857.99
2018-05-31T16:24:45.812Z,97853.70
2018-05-31T16:27:14.076Z,97857.11
2018-05-31T16:29:43.106Z,97855.76
2018-05-31T16:32:11.360Z,97854.45
2018-05-31T16:34:39.642Z,97837.97
2018-05-31T16:37:07.888Z,97836.14
2018-05-31T16:39:36.922Z,97831.25
2018-05-31T16:42:05.174Z,97843.65
2018-05-31T16:44:34.202Z,97836.82
2018-05-31T16:47:02.453Z,97837.76
2018-05-31T16:49:30.709Z,97836.91
2018-05-31T16:51:59.733Z,97837.19
2018-05-31T16:54:27.993Z,97836.63
2018-05-31T16:56:56.245Z,97837.81
2018-05-31T16:59:24.519Z,97835.20
2018-05-31T17:01:52.778Z,97837.73
2018-05-31T17:04:21.030Z,97833.80
2018-05-31T17:06:49.286Z,97834.04
2018-05-31T17:09:17.541Z,97838.02
2018-05-31T17:11:46.565Z,97837.46
2018-05-31T17:14:14.818Z,97836.75
2018-05-31T17:16:43.078Z,97840.03
2018-05-31T17:19:12.107Z,97841.45
2018-05-31T17:21:40.354Z,97837.37
2018-05-31T17:24:09.382Z,97842.56
2018-05-31T17:26:37.636Z,97838.94
2018-05-31T17:29:05.892Z,97839.08
2018-05-31T17:31:34.928Z,97844.95
2018-05-31T17:34:03.182Z,97859.05
2018-05-31T17:36:31.452Z,97868.95
2018-05-31T17:39:00.462Z,97865.91
2018-05-31T17:41:29.880Z,97875.89
2018-05-31T17:43:58.128Z,97882.09
2018-05-31T17:46:26.403Z,97877.32
2018-05-31T17:48:54.653Z,97882.61
2018-05-31T17:51:23.670Z,97882.03
2018-05-31T17:53:51.941Z,97876.49
2018-05-31T17:56:20.193Z,97873.60
2018-05-31T17:58:49.218Z,97869.12
2018-05-31T18:01:17.479Z,97876.52
2018-05-31T18:03:46.498Z,97871.19
2018-05-31T18:06:14.741Z,97869.43
2018-05-31T18:08:43.773Z,97861.56
2018-05-31T18:11:12.025Z,97864.12
2018-05-31T18:13:40.294Z,97863.59
2018-05-31T18:16:08.549Z,97874.36
2018-05-31T18:18:36.813Z,97875.83
2018-05-31T18:21:05.064Z,97879.25
2018-05-31T18:23:33.329Z,97879.41
2018-05-31T18:26:01.574Z,97885.02
2018-05-31T18:28:29.846Z,97899.45
2018-05-31T18:30:58.862Z,97902.93
2018-05-31T18:33:27.124Z,97911.69
2018-05-31T18:35:55.373Z,97910.64
2018-05-31T18:38:23.628Z,97909.73
2018-05-31T18:40:51.885Z,97903.81
2018-05-31T18:43:20.145Z,97899.41
2018-05-31T18:45:48.402Z,97901.12
2018-05-31T18:48:16.674Z,97900.80
2018-05-31T18:50:44.929Z,97902.80
2018-05-31T18:53:13.943Z,97915.89
2018-05-31T18:55:42.202Z,97923.19
2018-05-31T18:58:11.213Z,97923.08
2018-05-31T19:00:39.475Z,97919.72
2018-05-31T19:03:08.492Z,97929.23
2018-05-31T19:05:36.760Z,97934.56
2018-05-31T19:08:05.009Z,97941.41
2018-05-31T19:10:33.273Z,97933.27
2018-05-31T19:13:06.944Z,97929.88
2018-05-31T19:15:35.286Z,97934.23
2018-05-31T19:18:03.457Z,97938.97
2018-05-31T19:20:31.760Z,97946.28
2018-05-31T19:23:00.753Z,97960.84
2018-05-31T19:25:29.835Z,97964.45
2018-05-31T19:27:58.083Z,97966.59
2018-05-31T19:30:32.552Z,97972.91
2018-05-31T19:33:00.801Z,97977.35
2018-05-31T19:35:34.541Z,97979.70
2018-05-31T19:38:02.794Z,97973.02
2018-05-31T19:40:31.193Z,97972.06
2018-05-31T19:43:05.006Z,97966.82
2018-05-31T19:45:33.365Z,97963.08
2018-05-31T19:48:01.647Z,97958.48
2018-05-31T19:50:29.941Z,97966.25
2018-05-31T19:53:03.691Z,97961.34
2018-05-31T19:55:32.750Z,97971.24
2018-05-31T19:58:12.717Z,97966.36
2018-05-31T20:00:47.262Z,97968.19
2018-05-31T20:03:21.045Z,97950.11
2018-05-31T20:05:50.069Z,97946.42
2018-05-31T20:08:18.317Z,97945.08
2018-05-31T20:10:47.348Z,97949.41
2018-05-31T20:13:15.599Z,97953.02
2018-05-31T20:15:44.613Z,97959.36
2018-05-31T20:18:12.872Z,97980.05
2018-05-31T20:20:41.127Z,97983.52
2018-05-31T20:23:09.407Z,97983.28
2018-05-31T20:25:37.633Z,97986.56
2018-05-31T20:28:05.889Z,97990.42
2018-05-31T20:30:34.200Z,97985.45
2018-05-31T20:33:03.170Z,97992.98
2018-05-31T20:35:31.425Z,98007.92
2018-05-31T20:37:59.677Z,98011.67
2018-05-31T20:40:28.697Z,98011.95
2018-05-31T20:42:56.963Z,98014.07
2018-05-31T20:45:25.216Z,98015.77
2018-05-31T20:47:54.282Z,98017.48
2018-05-31T20:50:22.533Z,98023.53
2018-05-31T20:52:50.785Z,98023.95
2018-05-31T20:55:19.029Z,98024.34
2018-05-31T20:57:47.283Z,98022.56
2018-05-31T21:00:15.550Z,98017.30
2018-05-31T21:02:43.807Z,98011.67
2018-05-31T21:05:12.060Z,98010.13
2018-05-31T21:07:40.320Z,98008.34
2018-05-31T21:10:09.332Z,98003.30
2018-05-31T21:12:38.484Z,97991.38
2018-05-31T21:15:06.733Z,97993.95
2018-05-31T21:17:34.988Z,97983.69
2018-05-31T21:20:03.248Z,97982.27
2018-05-31T21:22:32.263Z,97982.42
2018-05-31T21:25:00.524Z,97976.08
2018-05-31T21:27:28.769Z,97967.99
2018-05-31T21:29:57.021Z,97969.55
2018-05-31T21:32:25.273Z,97967.81
2018-05-31T21:34:53.538Z,97966.70
2018-05-31T21:37:21.789Z,97965.72
2018-05-31T21:39:50.816Z,97968.25
2018-05-31T21:42:19.109Z,97976.21
2018-05-31T21:44:48.078Z,97971.31
2018-05-31T21:47:16.382Z,97981.84
2018-05-31T21:49:45.373Z,97983.61
2018-05-31T21:52:13.646Z,97981.49
2018-05-31T21:54:42.406Z,97990.98
2018-05-31T21:57:10.660Z,97983.71
2018-05-31T21:59:39.682Z,97981.75
2018-05-31T22:02:07.938Z,97972.12
2018-05-31T22:04:36.194Z,97965.52
2018-05-31T22:07:04.453Z,97966.61
2018-05-31T22:09:32.702Z,97963.09
2018-05-31T22:12:00.958Z,97957.74
2018-05-31T22:14:29.209Z,97958.37
2018-05-31T22:16:58.230Z,97957.70
2018-05-31T22:19:26.476Z,97958.62
2018-05-31T22:21:55.501Z,97954.20
2018-05-31T22:24:23.749Z,97948.21
2018-05-31T22:26:52.773Z,97943.00
2018-05-31T22:29:21.025Z,97938.26
2018-05-31T22:31:49.281Z,97939.09
2018-05-31T22:34:18.298Z,97945.38
2018-05-31T22:36:46.560Z,97945.42
2018-05-31T22:39:15.564Z,97949.94
2018-05-31T22:41:43.823Z,97958.17
2018-05-31T22:44:12.846Z,97953.03
2018-05-31T22:46:41.113Z,97950.55
2018-05-31T22:49:09.364Z,97954.67
2018-05-31T22:51:37.611Z,97945.34
2018-05-31T22:54:05.865Z,97946.42
2018-05-31T22:56:34.114Z,97946.98
2018-05-31T22:59:02.372Z,97945.66
2018-05-31T23:01:31.381Z,97943.42
2018-05-31T23:04:00.419Z,97948.78
2018-05-31T23:06:28.664Z,97956.50
2018-05-31T23:08:56.918Z,97947.02
2018-05-31T23:11:25.930Z,97954.94
2018-05-31T23:13:58.472Z,97952.62
2018-05-31T23:16:26.713Z,97961.67
2018-05-31T23:18:56.006Z,97971.09
2018-05-31T23:21:24.252Z,97972.56
2018-05-31T23:23:53.277Z,97975.57
2018-05-31T23:26:21.522Z,97980.02
2018-05-31T23:28:50.542Z,97984.52
2018-05-31T23:31:18.786Z,97996.20
2018-05-31T23:33:47.810Z,97996.25
2018-05-31T23:36:16.055Z,98001.95
2018-05-31T23:38:45.067Z,98006.81
2018-05-31T23:41:13.318Z,98010.59
2018-05-31T23:43:42.337Z,98010.67
2018-05-31T23:46:10.592Z,98021.66
2018-05-31T23:48:41.763Z,98021.20
2018-05-31T23:51:10.013Z,98024.15
2018-05-31T23:53:39.034Z,98026.91
2018-05-31T23:56:07.289Z,98027.14
2018-05-31T23:58:35.541Z,98019.64
